createdAt,value
2018-07-18T00:00:58.251Z,83.09
2018-07-18T00:01:58.840Z,83.29
2018-07-18T00:02:59.403Z,83.58
2018-07-18T00:03:59.952Z,83.19
2018-07-18T00:05:00.491Z,83.86
2018-07-18T00:06:01.049Z,83.67
2018-07-18T00:07:01.600Z,83.95
2018-07-18T00:08:02.154Z,83.86
2018-07-18T00:09:02.701Z,84.44
2018-07-18T00:10:03.256Z,83.95
2018-07-18T00:11:03.804Z,83.95
2018-07-18T00:12:04.355Z,84.15
2018-07-18T00:13:04.908Z,84.01
2018-07-18T00:14:05.463Z,84.20
2018-07-18T00:15:06.015Z,84.20
2018-07-18T00:16:06.565Z,84.39
2018-07-18T00:17:07.118Z,84.88
2018-07-18T00:18:07.672Z,84.78
2018-07-18T00:19:08.227Z,85.25
2018-07-18T00:20:08.778Z,85.25
2018-07-18T00:21:09.332Z,85.54
2018-07-18T00:22:09.907Z,85.25
2018-07-18T00:23:10.440Z,85.25
2018-07-18T00:24:10.995Z,85.54
2018-07-18T00:25:11.554Z,86.02
2018-07-18T00:26:12.094Z,86.02
2018-07-18T00:27:12.656Z,86.02
2018-07-18T00:28:13.204Z,86.21
2018-07-18T00:29:13.832Z,86.12
2018-07-18T00:30:14.313Z,86.79
2018-07-18T00:31:14.867Z,86.60
2018-07-18T00:32:15.421Z,86.50
2018-07-18T00:33:15.976Z,86.41
2018-07-18T00:34:16.533Z,86.60
2018-07-18T00:35:17.085Z,86.79
2018-07-18T00:36:17.645Z,86.79
2018-07-18T00:37:18.201Z,86.88
2018-07-18T00:38:18.759Z,86.79
2018-07-18T00:39:19.306Z,86.98
2018-07-18T00:40:19.861Z,86.98
2018-07-18T00:41:20.415Z,87.17
2018-07-18T00:42:20.967Z,86.98
2018-07-18T00:43:21.520Z,87.27
2018-07-18T00:44:22.074Z,87.23
2018-07-18T00:45:22.630Z,87.03
2018-07-18T00:46:23.181Z,87.13
2018-07-18T00:47:23.734Z,87.32
2018-07-18T00:48:24.291Z,87.41
2018-07-18T00:49:24.842Z,87.90
2018-07-18T00:50:25.394Z,87.90
2018-07-18T00:51:25.940Z,87.70
2018-07-18T00:52:26.493Z,87.90
2018-07-18T00:53:27.047Z,87.51
2018-07-18T00:54:27.600Z,87.23
2018-07-18T00:55:28.153Z,88.28
2018-07-18T00:56:28.714Z,88.28
2018-07-18T00:57:29.261Z,87.90
2018-07-18T00:58:29.806Z,88.18
2018-07-18T00:59:30.361Z,88.09
2018-07-18T01:00:30.915Z,88.18
2018-07-18T01:01:31.471Z,87.95
2018-07-18T01:02:32.015Z,88.09
2018-07-18T01:03:32.574Z,88.52
2018-07-18T01:04:33.124Z,88.81
2018-07-18T01:05:33.679Z,88.90
2018-07-18T01:06:34.235Z,88.90
2018-07-18T01:07:34.786Z,88.71
2018-07-18T01:08:35.343Z,88.90
2018-07-18T01:09:35.888Z,89.19
2018-07-18T01:10:36.445Z,89.29
2018-07-18T01:11:36.997Z,89.09
2018-07-18T01:12:37.547Z,90.15
2018-07-18T01:13:38.099Z,90.05
2018-07-18T01:14:38.651Z,90.15
2018-07-18T01:15:39.204Z,90.15
2018-07-18T01:16:39.762Z,90.05
2018-07-18T01:17:40.312Z,90.44
2018-07-18T01:18:40.856Z,90.62
2018-07-18T01:19:41.410Z,90.72
2018-07-18T01:20:41.964Z,90.82
2018-07-18T01:21:42.517Z,90.82
2018-07-18T01:22:43.072Z,90.91
2018-07-18T01:23:43.624Z,90.82
2018-07-18T01:24:44.177Z,90.62
2018-07-18T01:25:44.729Z,90.72
2018-07-18T01:26:45.288Z,91.01
2018-07-18T01:27:45.838Z,90.62
2018-07-18T01:28:46.385Z,90.39
2018-07-18T01:29:46.938Z,90.67
2018-07-18T01:30:47.491Z,90.48
2018-07-18T01:31:48.045Z,90.58
2018-07-18T01:32:48.597Z,91.16
2018-07-18T01:33:49.150Z,90.96
2018-07-18T01:34:49.704Z,91.16
2018-07-18T01:35:50.254Z,91.35
2018-07-18T01:36:50.805Z,91.63
2018-07-18T01:37:51.366Z,91.53
2018-07-18T01:38:51.914Z,91.83
2018-07-18T01:39:52.472Z,91.73
2018-07-18T01:40:53.051Z,91.83
2018-07-18T01:41:53.579Z,92.02
2018-07-18T01:42:54.132Z,91.53
2018-07-18T01:43:54.683Z,92.02
2018-07-18T01:44:55.234Z,91.83
2018-07-18T01:45:55.786Z,91.92
2018-07-18T01:46:56.338Z,92.30
2018-07-18T01:47:56.892Z,92.21
2018-07-18T01:48:57.446Z,91.78
2018-07-18T01:49:58.004Z,92.11
2018-07-18T01:50:58.555Z,91.97
2018-07-18T01:51:59.108Z,92.30
2018-07-18T01:52:59.653Z,92.54
2018-07-18T01:54:00.208Z,92.45
2018-07-18T01:55:00.758Z,92.64
2018-07-18T01:56:01.312Z,93.02
2018-07-18T01:57:01.859Z,92.83
2018-07-18T01:58:02.413Z,93.02
2018-07-18T01:59:02.959Z,92.74
2018-07-18T02:00:03.510Z,92.74
2018-07-18T02:01:04.061Z,93.12
2018-07-18T02:02:04.617Z,93.40
2018-07-18T02:03:05.173Z,93.40
2018-07-18T02:04:05.725Z,93.21
2018-07-18T02:05:06.285Z,93.12
2018-07-18T02:06:06.830Z,93.50
2018-07-18T02:07:07.382Z,93.40
2018-07-18T02:08:07.939Z,93.40
2018-07-18T02:09:08.492Z,93.69
2018-07-18T02:10:09.047Z,93.69
2018-07-18T02:11:09.595Z,93.79
2018-07-18T02:12:10.152Z,94.26
2018-07-18T02:13:10.709Z,94.07
2018-07-18T02:14:11.259Z,94.07
2018-07-18T02:15:11.807Z,93.88
2018-07-18T02:16:12.355Z,94.07
2018-07-18T02:17:12.908Z,93.88
2018-07-18T02:18:13.460Z,94.46
2018-07-18T02:19:14.016Z,94.55
2018-07-18T02:20:14.566Z,94.55
2018-07-18T02:21:15.111Z,94.55
2018-07-18T02:22:15.664Z,94.84
2018-07-18T02:23:16.213Z,95.12
2018-07-18T02:24:16.760Z,95.41
2018-07-18T02:25:17.312Z,95.12
2018-07-18T02:26:17.867Z,94.93
2018-07-18T02:27:18.414Z,95.12
2018-07-18T02:28:18.966Z,95.12
2018-07-18T02:29:19.523Z,95.41
2018-07-18T02:30:20.074Z,94.98
2018-07-18T02:31:20.627Z,94.93
2018-07-18T02:32:21.178Z,95.36
2018-07-18T02:33:21.733Z,95.36
2018-07-18T02:34:22.277Z,95.17
2018-07-18T02:35:22.833Z,95.27
2018-07-18T02:36:23.384Z,95.36
2018-07-18T02:37:23.938Z,95.46
2018-07-18T02:38:24.491Z,95.75
2018-07-18T02:39:25.043Z,95.75
2018-07-18T02:40:25.592Z,95.94
2018-07-18T02:41:26.146Z,95.46
2018-07-18T02:42:26.701Z,96.22
2018-07-18T02:43:27.255Z,96.13
2018-07-18T02:44:27.811Z,96.13
2018-07-18T02:45:28.365Z,96.13
2018-07-18T02:46:28.919Z,95.84
2018-07-18T02:47:29.472Z,95.94
2018-07-18T02:48:30.024Z,96.03
2018-07-18T02:49:30.581Z,96.22
2018-07-18T02:50:31.130Z,96.42
2018-07-18T02:51:31.686Z,96.61
2018-07-18T02:52:32.238Z,96.61
2018-07-18T02:53:32.791Z,96.99
2018-07-18T02:54:33.348Z,96.51
2018-07-18T02:55:33.957Z,96.70
2018-07-18T02:56:34.448Z,96.56
2018-07-18T02:57:34.999Z,96.80
2018-07-18T02:58:35.553Z,96.46
2018-07-18T02:59:36.112Z,97.03
2018-07-18T03:00:36.652Z,97.13
2018-07-18T03:01:37.206Z,96.66
2018-07-18T03:02:37.759Z,96.75
2018-07-18T03:03:38.303Z,97.23
2018-07-18T03:04:38.860Z,96.94
2018-07-18T03:05:39.412Z,96.75
2018-07-18T03:06:39.960Z,96.94
2018-07-18T03:07:40.514Z,96.99
2018-07-18T03:08:41.059Z,97.03
2018-07-18T03:09:41.605Z,97.03
2018-07-18T03:10:42.155Z,96.94
2018-07-18T03:11:42.710Z,97.23
2018-07-18T03:12:43.264Z,96.94
2018-07-18T03:13:43.817Z,97.42
2018-07-18T03:14:44.367Z,97.23
2018-07-18T03:15:44.915Z,97.71
2018-07-18T03:16:45.469Z,97.42
2018-07-18T03:17:46.022Z,97.89
2018-07-18T03:18:46.570Z,97.89
2018-07-18T03:19:47.120Z,98.57
2018-07-18T03:20:47.674Z,98.57
2018-07-18T03:21:48.227Z,99.14
2018-07-18T03:22:48.778Z,98.85
2018-07-18T03:23:49.335Z,98.66
2018-07-18T03:24:49.887Z,99.43
2018-07-18T03:25:50.441Z,99.43
2018-07-18T03:26:50.994Z,99.43
2018-07-18T03:27:51.542Z,99.23
2018-07-18T03:28:52.095Z,99.23
2018-07-18T03:29:52.649Z,99.43
2018-07-18T03:30:53.201Z,99.33
2018-07-18T03:31:53.760Z,99.23
2018-07-18T03:32:54.315Z,99.33
2018-07-18T03:33:54.862Z,98.94
2018-07-18T03:34:55.420Z,98.85
2018-07-18T03:35:55.977Z,99.23
2018-07-18T03:36:56.555Z,99.52
2018-07-18T03:37:57.077Z,99.23
2018-07-18T03:38:57.632Z,99.71
2018-07-18T03:39:58.183Z,99.04
2018-07-18T03:40:58.735Z,98.94
2018-07-18T03:41:59.289Z,98.66
2018-07-18T03:42:59.843Z,98.57
2018-07-18T03:44:00.403Z,99.14
2018-07-18T03:45:00.956Z,98.66
2018-07-18T03:46:01.515Z,98.94
2018-07-18T03:47:02.071Z,98.94
2018-07-18T03:48:02.622Z,99.04
2018-07-18T03:49:03.178Z,99.04
2018-07-18T03:50:03.731Z,98.66
2018-07-18T03:51:04.281Z,98.66
2018-07-18T03:52:04.837Z,98.94
2018-07-18T03:53:05.397Z,99.04
2018-07-18T03:54:05.954Z,98.66
2018-07-18T03:55:06.504Z,98.66
2018-07-18T03:56:07.056Z,98.85
2018-07-18T03:57:07.616Z,99.14
2018-07-18T03:58:08.171Z,99.62
2018-07-18T03:59:08.736Z,99.23
2018-07-18T04:00:09.290Z,99.52
2018-07-18T04:01:09.845Z,99.23
2018-07-18T04:02:10.400Z,99.14
2018-07-18T04:03:10.958Z,99.14
2018-07-18T04:04:11.514Z,99.04
2018-07-18T04:05:12.077Z,99.14
2018-07-18T04:06:12.633Z,99.14
2018-07-18T04:07:13.194Z,99.14
2018-07-18T04:08:13.751Z,99.33
2018-07-18T04:09:14.312Z,98.94
2018-07-18T04:10:14.874Z,98.75
2018-07-18T04:11:15.457Z,98.85
2018-07-18T04:12:15.975Z,98.66
2018-07-18T04:13:16.533Z,98.75
2018-07-18T04:14:17.089Z,98.94
2018-07-18T04:15:17.643Z,99.14
2018-07-18T04:16:18.201Z,99.14
2018-07-18T04:17:18.750Z,99.04
2018-07-18T04:18:19.307Z,98.94
2018-07-18T04:19:19.870Z,98.75
2018-07-18T04:20:20.430Z,98.37
2018-07-18T04:21:20.984Z,98.57
2018-07-18T04:22:21.538Z,98.37
2018-07-18T04:23:22.096Z,98.37
2018-07-18T04:24:22.654Z,98.28
2018-07-18T04:25:23.217Z,98.08
2018-07-18T04:26:23.771Z,97.99
2018-07-18T04:27:24.363Z,97.56
2018-07-18T04:28:24.919Z,97.56
2018-07-18T04:29:25.503Z,97.52
2018-07-18T04:30:26.037Z,97.56
2018-07-18T04:31:26.585Z,97.66
2018-07-18T04:32:27.143Z,97.37
2018-07-18T04:33:27.701Z,97.18
2018-07-18T04:34:28.249Z,97.08
2018-07-18T04:35:28.862Z,96.80
2018-07-18T04:36:29.354Z,96.70
2018-07-18T04:37:29.916Z,96.61
2018-07-18T04:38:30.482Z,97.04
2018-07-18T04:39:31.024Z,96.75
2018-07-18T04:40:31.577Z,96.66
2018-07-18T04:41:32.135Z,96.56
2018-07-18T04:42:32.685Z,97.04
2018-07-18T04:43:33.242Z,96.08
2018-07-18T04:44:33.805Z,95.98
2018-07-18T04:45:34.362Z,95.89
2018-07-18T04:46:34.923Z,95.79
2018-07-18T04:47:35.473Z,95.56
2018-07-18T04:48:36.034Z,95.65
2018-07-18T04:49:36.596Z,94.93
2018-07-18T04:50:37.160Z,95.07
2018-07-18T04:51:37.718Z,95.27
2018-07-18T04:52:38.285Z,94.70
2018-07-18T04:53:38.867Z,95.27
2018-07-18T04:54:39.386Z,95.89
2018-07-18T04:55:40.009Z,96.13
2018-07-18T04:56:40.503Z,93.59
2018-07-18T04:57:41.061Z,90.95
2018-07-18T04:58:41.624Z,89.94
2018-07-18T04:59:42.186Z,88.07
2018-07-18T05:00:42.750Z,86.44
2018-07-18T05:01:43.307Z,85.72
2018-07-18T05:02:43.863Z,85.25
2018-07-18T05:03:44.425Z,85.68
2018-07-18T05:04:44.985Z,86.41
2018-07-18T05:05:45.549Z,87.17
2018-07-18T05:06:46.109Z,87.65
2018-07-18T05:07:46.669Z,87.65
2018-07-18T05:08:47.231Z,88.23
2018-07-18T05:09:47.850Z,88.51
2018-07-18T05:10:48.359Z,88.80
2018-07-18T05:11:48.922Z,89.37
2018-07-18T05:12:49.484Z,90.38
2018-07-18T05:13:50.050Z,89.41
2018-07-18T05:14:50.608Z,87.44
2018-07-18T05:15:51.260Z,84.94
2018-07-18T05:16:51.733Z,83.15
2018-07-18T05:17:52.302Z,81.17
2018-07-18T05:18:52.856Z,79.86
2018-07-18T05:19:53.415Z,77.75
2018-07-18T05:20:53.971Z,77.46
2018-07-18T05:21:54.594Z,77.31
2018-07-18T05:22:55.116Z,76.42
2018-07-18T05:23:55.687Z,75.20
2018-07-18T05:24:56.258Z,73.31
2018-07-18T05:25:56.828Z,72.09
2018-07-18T05:26:57.389Z,71.61
2018-07-18T05:27:57.957Z,70.48
2018-07-18T05:28:58.518Z,69.52
2018-07-18T05:29:59.211Z,68.59
2018-07-18T05:30:59.676Z,68.14
2018-07-18T05:32:00.245Z,66.88
2018-07-18T05:33:00.810Z,66.46
2018-07-18T05:34:01.405Z,66.91
2018-07-18T05:35:01.948Z,69.00
2018-07-18T05:36:02.518Z,69.68
2018-07-18T05:37:03.091Z,69.26
2018-07-18T05:38:03.662Z,67.72
2018-07-18T05:39:04.234Z,66.82
2018-07-18T05:40:04.797Z,65.50
2018-07-18T05:41:05.366Z,63.89
2018-07-18T05:42:05.933Z,63.95
2018-07-18T05:43:06.505Z,63.79
2018-07-18T05:44:07.078Z,63.24
2018-07-18T05:45:07.652Z,61.91
2018-07-18T05:46:08.223Z,61.52
2018-07-18T05:47:08.794Z,61.69
2018-07-18T05:48:09.366Z,62.53
2018-07-18T05:49:09.941Z,63.79
2018-07-18T05:50:10.513Z,63.62
2018-07-18T05:51:11.085Z,63.62
2018-07-18T05:52:11.666Z,63.07
2018-07-18T05:53:12.242Z,62.43
2018-07-18T05:54:12.810Z,60.81
2018-07-18T05:55:13.386Z,60.35
2018-07-18T05:56:13.961Z,59.80
2018-07-18T05:57:14.537Z,59.22
2018-07-18T05:58:15.108Z,58.64
2018-07-18T05:59:15.682Z,58.54
2018-07-18T06:00:16.257Z,57.82
2018-07-18T06:01:16.831Z,57.23
2018-07-18T06:02:17.400Z,56.56
2018-07-18T06:03:17.975Z,56.59
2018-07-18T06:04:18.545Z,56.12
2018-07-18T06:05:19.117Z,55.66
2018-07-18T06:06:19.696Z,54.66
2018-07-18T06:07:20.272Z,54.60
2018-07-18T06:08:20.855Z,54.69
2018-07-18T06:09:21.424Z,55.08
2018-07-18T06:10:22.060Z,54.79
2018-07-18T06:11:22.573Z,54.33
2018-07-18T06:12:23.155Z,53.62
2018-07-18T06:13:23.729Z,54.01
2018-07-18T06:14:24.302Z,54.21
2018-07-18T06:15:24.880Z,54.79
2018-07-18T06:16:25.454Z,53.94
2018-07-18T06:17:26.051Z,53.85
2018-07-18T06:18:26.604Z,53.19
2018-07-18T06:19:27.174Z,52.89
2018-07-18T06:20:27.749Z,52.97
2018-07-18T06:21:28.367Z,54.01
2018-07-18T06:22:28.941Z,54.60
2018-07-18T06:23:29.517Z,54.40
2018-07-18T06:24:30.095Z,53.67
2018-07-18T06:25:30.660Z,52.89
2018-07-18T06:26:31.233Z,53.09
2018-07-18T06:27:31.809Z,52.83
2018-07-18T06:28:32.389Z,52.56
2018-07-18T06:29:32.990Z,52.26
2018-07-18T06:30:33.529Z,52.00
2018-07-18T06:31:34.104Z,51.34
2018-07-18T06:32:34.681Z,50.46
2018-07-18T06:33:35.248Z,49.78
2018-07-18T06:34:35.824Z,49.56
2018-07-18T06:35:36.391Z,49.66
2018-07-18T06:36:37.034Z,49.90
2018-07-18T06:37:37.532Z,50.41
2018-07-18T06:38:38.111Z,49.76
2018-07-18T06:39:38.685Z,49.37
2018-07-18T06:40:39.260Z,49.41
2018-07-18T06:41:39.834Z,49.90
2018-07-18T06:42:40.402Z,49.99
2018-07-18T06:43:40.975Z,49.46
2018-07-18T06:44:41.543Z,49.15
2018-07-18T06:45:42.119Z,48.44
2018-07-18T06:46:42.697Z,48.63
2018-07-18T06:47:43.265Z,48.24
2018-07-18T06:48:43.841Z,48.54
2018-07-18T06:49:44.415Z,48.54
2018-07-18T06:50:44.989Z,48.44
2018-07-18T06:51:45.564Z,49.12
2018-07-18T06:52:46.149Z,49.32
2018-07-18T06:53:46.713Z,49.24
2018-07-18T06:54:47.296Z,48.54
2018-07-18T06:55:47.863Z,48.83
2018-07-18T06:56:48.431Z,49.22
2018-07-18T06:57:49.009Z,48.63
2018-07-18T06:58:49.578Z,48.41
2018-07-18T06:59:50.155Z,49.19
2018-07-18T07:00:50.740Z,49.19
2018-07-18T07:01:51.298Z,49.22
2018-07-18T07:02:51.874Z,48.44
2018-07-18T07:03:52.450Z,48.34
2018-07-18T07:04:53.025Z,48.24
2018-07-18T07:05:53.600Z,48.51
2018-07-18T07:06:54.180Z,48.10
2018-07-18T07:07:54.782Z,48.97
2018-07-18T07:08:55.328Z,48.49
2018-07-18T07:09:55.896Z,49.10
2018-07-18T07:10:56.499Z,49.12
2018-07-18T07:11:57.048Z,47.97
2018-07-18T07:12:57.627Z,47.00
2018-07-18T07:13:58.201Z,46.63
2018-07-18T07:14:58.771Z,46.56
2018-07-18T07:15:59.348Z,46.97
2018-07-18T07:16:59.925Z,48.34
2018-07-18T07:18:00.501Z,47.27
2018-07-18T07:19:01.085Z,45.68
2018-07-18T07:20:01.649Z,46.56
2018-07-18T07:21:02.218Z,46.36
2018-07-18T07:22:02.798Z,46.04
2018-07-18T07:23:03.372Z,46.24
2018-07-18T07:24:03.944Z,45.95
2018-07-18T07:25:04.524Z,46.02
2018-07-18T07:26:05.098Z,46.17
2018-07-18T07:27:05.672Z,45.39
2018-07-18T07:28:06.250Z,45.87
2018-07-18T07:29:06.860Z,44.85
2018-07-18T07:30:07.401Z,45.36
2018-07-18T07:31:07.972Z,45.68
2018-07-18T07:32:08.550Z,44.82
2018-07-18T07:33:09.126Z,45.23
2018-07-18T07:34:09.697Z,45.75
2018-07-18T07:35:10.275Z,46.14
2018-07-18T07:36:10.849Z,46.62
2018-07-18T07:37:11.421Z,45.61
2018-07-18T07:38:11.997Z,45.21
2018-07-18T07:39:12.573Z,44.94
2018-07-18T07:40:13.152Z,44.06
2018-07-18T07:41:13.760Z,44.35
2018-07-18T07:42:14.302Z,44.57
2018-07-18T07:43:14.869Z,43.79
2018-07-18T07:44:15.453Z,43.49
2018-07-18T07:45:16.024Z,43.10
2018-07-18T07:46:16.607Z,42.93
2018-07-18T07:47:17.170Z,43.32
2018-07-18T07:48:17.779Z,45.36
2018-07-18T07:49:18.325Z,45.14
2018-07-18T07:50:18.903Z,45.70
2018-07-18T07:51:19.474Z,46.00
2018-07-18T07:52:20.054Z,45.72
2018-07-18T07:53:20.635Z,43.87
2018-07-18T07:54:21.205Z,43.75
2018-07-18T07:55:21.780Z,44.70
2018-07-18T07:56:22.362Z,44.82
2018-07-18T07:57:22.931Z,44.92
2018-07-18T07:58:23.496Z,44.74
2018-07-18T07:59:24.077Z,44.16
2018-07-18T08:00:24.695Z,44.09
2018-07-18T08:01:25.226Z,43.59
2018-07-18T08:02:25.801Z,43.62
2018-07-18T08:03:26.377Z,43.81
2018-07-18T08:04:26.952Z,43.81
2018-07-18T08:05:27.529Z,42.93
2018-07-18T08:06:28.105Z,42.64
2018-07-18T08:07:28.691Z,42.81
2018-07-18T08:08:29.263Z,42.61
2018-07-18T08:09:29.838Z,42.22
2018-07-18T08:10:30.407Z,42.42
2018-07-18T08:11:30.986Z,42.71
2018-07-18T08:12:31.563Z,42.32
2018-07-18T08:13:32.144Z,43.48
2018-07-18T08:14:32.711Z,42.91
2018-07-18T08:15:33.287Z,43.30
2018-07-18T08:16:33.863Z,42.15
2018-07-18T08:17:34.436Z,42.22
2018-07-18T08:18:35.012Z,42.42
2018-07-18T08:19:35.589Z,42.42
2018-07-18T08:20:36.167Z,42.13
2018-07-18T08:21:36.732Z,42.50
2018-07-18T08:22:37.309Z,42.99
2018-07-18T08:23:37.874Z,42.99
2018-07-18T08:24:38.459Z,42.32
2018-07-18T08:25:39.030Z,42.05
2018-07-18T08:26:39.654Z,41.46
2018-07-18T08:27:40.165Z,41.46
2018-07-18T08:28:40.741Z,41.58
2018-07-18T08:29:41.319Z,41.25
2018-07-18T08:30:41.896Z,41.54
2018-07-18T08:31:42.468Z,41.54
2018-07-18T08:32:43.049Z,41.56
2018-07-18T08:33:43.624Z,41.33
2018-07-18T08:34:44.201Z,42.30
2018-07-18T08:35:44.771Z,41.42
2018-07-18T08:36:45.349Z,40.66
2018-07-18T08:37:45.921Z,40.76
2018-07-18T08:38:46.491Z,41.29
2018-07-18T08:39:47.068Z,40.68
2018-07-18T08:40:47.642Z,39.72
2018-07-18T08:41:48.222Z,40.80
2018-07-18T08:42:48.797Z,40.00
2018-07-18T08:43:49.365Z,39.69
2018-07-18T08:44:49.944Z,40.43
2018-07-18T08:45:50.518Z,40.63
2018-07-18T08:46:51.084Z,40.74
2018-07-18T08:47:51.659Z,39.96
2018-07-18T08:48:52.240Z,39.98
2018-07-18T08:49:52.806Z,39.96
2018-07-18T08:50:53.376Z,40.25
2018-07-18T08:51:53.952Z,39.78
2018-07-18T08:52:54.523Z,39.90
2018-07-18T08:53:55.095Z,38.94
2018-07-18T08:54:55.668Z,38.86
2018-07-18T08:55:56.246Z,38.57
2018-07-18T08:56:56.811Z,38.29
2018-07-18T08:57:57.381Z,38.02
2018-07-18T08:58:58.026Z,37.73
2018-07-18T08:59:58.548Z,37.45
2018-07-18T09:00:59.135Z,37.54
2018-07-18T09:01:59.700Z,37.13
2018-07-18T09:03:00.273Z,37.65
2018-07-18T09:04:00.847Z,37.07
2018-07-18T09:05:01.454Z,37.07
2018-07-18T09:06:02.043Z,37.54
2018-07-18T09:07:02.615Z,36.84
2018-07-18T09:08:03.191Z,37.25
2018-07-18T09:09:03.776Z,37.74
2018-07-18T09:10:04.339Z,37.52
2018-07-18T09:11:04.917Z,37.71
2018-07-18T09:12:05.492Z,38.00
2018-07-18T09:13:06.090Z,37.71
2018-07-18T09:14:06.630Z,37.81
2018-07-18T09:15:07.206Z,37.81
2018-07-18T09:16:07.789Z,37.81
2018-07-18T09:17:08.397Z,37.90
2018-07-18T09:18:09.018Z,38.16
2018-07-18T09:19:09.575Z,38.26
2018-07-18T09:20:10.143Z,38.47
2018-07-18T09:21:10.709Z,38.39
2018-07-18T09:22:11.294Z,38.29
2018-07-18T09:23:11.870Z,38.88
2018-07-18T09:24:12.453Z,38.78
2018-07-18T09:25:13.026Z,38.39
2018-07-18T09:26:13.635Z,38.59
2018-07-18T09:27:14.232Z,38.39
2018-07-18T09:28:14.803Z,38.37
2018-07-18T09:29:15.380Z,38.94
2018-07-18T09:30:15.958Z,38.76
2018-07-18T09:31:16.537Z,38.78
2018-07-18T09:32:17.106Z,38.98
2018-07-18T09:33:17.687Z,38.47
2018-07-18T09:34:18.263Z,38.47
2018-07-18T09:35:18.845Z,38.68
2018-07-18T09:36:19.407Z,38.96
2018-07-18T09:37:19.983Z,38.76
2018-07-18T09:38:20.562Z,38.28
2018-07-18T09:39:21.137Z,38.39
2018-07-18T09:40:21.705Z,38.57
2018-07-18T09:41:22.285Z,38.75
2018-07-18T09:42:22.857Z,38.94
2018-07-18T09:43:23.432Z,39.02
2018-07-18T09:44:24.009Z,40.00
2018-07-18T09:45:24.609Z,39.51
2018-07-18T09:46:25.180Z,39.70
2018-07-18T09:47:25.858Z,39.69
2018-07-18T09:48:26.322Z,40.27
2018-07-18T09:49:26.899Z,40.66
2018-07-18T09:50:27.476Z,40.66
2018-07-18T09:51:28.051Z,40.29
2018-07-18T09:52:28.619Z,39.61
2018-07-18T09:53:29.197Z,39.78
2018-07-18T09:54:29.768Z,39.31
2018-07-18T09:55:30.341Z,39.70
2018-07-18T09:56:30.910Z,39.98
2018-07-18T09:57:31.487Z,39.02
2018-07-18T09:58:32.066Z,39.22
2018-07-18T09:59:32.649Z,39.33
2018-07-18T10:00:33.216Z,39.43
2018-07-18T10:01:33.792Z,39.43
2018-07-18T10:02:34.367Z,38.84
2018-07-18T10:03:34.945Z,38.94
2018-07-18T10:04:35.514Z,38.55
2018-07-18T10:05:36.090Z,38.96
2018-07-18T10:06:36.666Z,39.15
2018-07-18T10:07:37.248Z,38.98
2018-07-18T10:08:37.819Z,38.00
2018-07-18T10:09:38.393Z,37.81
2018-07-18T10:10:38.969Z,37.59
2018-07-18T10:11:39.538Z,37.81
2018-07-18T10:12:40.113Z,38.08
2018-07-18T10:13:40.691Z,38.28
2018-07-18T10:14:41.264Z,38.10
2018-07-18T10:15:41.850Z,37.71
2018-07-18T10:16:42.462Z,37.90
2018-07-18T10:17:42.997Z,38.00
2018-07-18T10:18:43.576Z,38.16
2018-07-18T10:19:44.151Z,38.86
2018-07-18T10:20:44.737Z,38.37
2018-07-18T10:21:45.310Z,38.37
2018-07-18T10:22:45.888Z,37.71
2018-07-18T10:23:46.459Z,38.10
2018-07-18T10:24:47.032Z,37.92
2018-07-18T10:25:47.614Z,37.54
2018-07-18T10:26:48.179Z,37.52
2018-07-18T10:27:48.826Z,37.73
2018-07-18T10:28:49.331Z,38.31
2018-07-18T10:29:49.909Z,37.94
2018-07-18T10:30:50.479Z,37.46
2018-07-18T10:31:51.057Z,37.46
2018-07-18T10:32:51.634Z,36.98
2018-07-18T10:33:52.209Z,36.90
2018-07-18T10:34:52.772Z,36.90
2018-07-18T10:35:53.342Z,36.80
2018-07-18T10:36:53.913Z,36.60
2018-07-18T10:37:54.492Z,36.27
2018-07-18T10:38:55.068Z,36.94
2018-07-18T10:39:55.663Z,36.82
2018-07-18T10:40:56.217Z,36.63
2018-07-18T10:41:56.799Z,37.02
2018-07-18T10:42:57.376Z,36.84
2018-07-18T10:43:57.946Z,36.16
2018-07-18T10:44:58.522Z,36.06
2018-07-18T10:45:59.094Z,35.97
2018-07-18T10:46:59.670Z,35.78
2018-07-18T10:48:00.248Z,35.88
2018-07-18T10:49:00.815Z,35.99
2018-07-18T10:50:01.389Z,35.74
2018-07-18T10:51:01.966Z,35.83
2018-07-18T10:52:02.545Z,35.54
2018-07-18T10:53:03.125Z,35.80
2018-07-18T10:54:03.697Z,35.70
2018-07-18T10:55:04.275Z,36.19
2018-07-18T10:56:04.891Z,37.46
2018-07-18T10:57:05.412Z,37.74
2018-07-18T10:58:05.998Z,36.76
2018-07-18T10:59:06.578Z,36.39
2018-07-18T11:00:07.144Z,35.99
2018-07-18T11:01:07.721Z,35.80
2018-07-18T11:02:08.307Z,35.60
2018-07-18T11:03:08.865Z,35.68
2018-07-18T11:04:09.440Z,35.96
2018-07-18T11:05:10.026Z,36.90
2018-07-18T11:06:10.604Z,37.02
2018-07-18T11:07:11.169Z,37.04
2018-07-18T11:08:11.735Z,36.94
2018-07-18T11:09:12.309Z,36.84
2018-07-18T11:10:12.884Z,36.96
2018-07-18T11:11:13.452Z,36.96
2018-07-18T11:12:14.021Z,37.02
2018-07-18T11:13:14.597Z,37.12
2018-07-18T11:14:15.162Z,37.79
2018-07-18T11:15:15.733Z,37.49
2018-07-18T11:16:16.303Z,37.49
2018-07-18T11:17:16.877Z,37.98
2018-07-18T11:18:17.450Z,36.71
2018-07-18T11:19:18.022Z,36.92
2018-07-18T11:20:18.598Z,36.47
2018-07-18T11:21:19.170Z,35.50
2018-07-18T11:22:19.746Z,35.60
2018-07-18T11:23:20.311Z,35.60
2018-07-18T11:24:20.886Z,35.78
2018-07-18T11:25:21.457Z,35.96
2018-07-18T11:26:22.064Z,36.43
2018-07-18T11:27:22.592Z,36.59
2018-07-18T11:28:23.185Z,37.08
2018-07-18T11:29:23.749Z,36.71
2018-07-18T11:30:24.327Z,36.43
2018-07-18T11:31:24.901Z,35.85
2018-07-18T11:32:25.472Z,35.78
2018-07-18T11:33:26.051Z,35.49
2018-07-18T11:34:26.622Z,35.37
2018-07-18T11:35:27.186Z,35.73
2018-07-18T11:36:27.757Z,36.69
2018-07-18T11:37:28.325Z,36.67
2018-07-18T11:38:28.899Z,37.16
2018-07-18T11:39:29.537Z,36.67
2018-07-18T11:40:30.046Z,36.59
2018-07-18T11:41:30.621Z,35.66
2018-07-18T11:42:31.257Z,35.80
2018-07-18T11:43:31.766Z,35.39
2018-07-18T11:44:32.340Z,35.03
2018-07-18T11:45:32.919Z,34.36
2018-07-18T11:46:33.488Z,34.67
2018-07-18T11:47:34.070Z,34.69
2018-07-18T11:48:34.647Z,34.69
2018-07-18T11:49:35.242Z,34.49
2018-07-18T11:50:36.052Z,34.31
2018-07-18T11:51:36.418Z,34.43
2018-07-18T11:52:36.987Z,34.23
2018-07-18T11:53:37.562Z,33.44
2018-07-18T11:54:38.141Z,33.34
2018-07-18T11:55:38.769Z,32.87
2018-07-18T11:56:39.293Z,32.95
2018-07-18T11:57:39.872Z,32.97
2018-07-18T11:58:40.451Z,32.97
2018-07-18T11:59:41.023Z,32.97
2018-07-18T12:00:41.602Z,33.00
2018-07-18T12:01:42.210Z,32.90
2018-07-18T12:02:42.755Z,32.97
2018-07-18T12:03:43.378Z,32.95
2018-07-18T12:04:43.896Z,33.54
2018-07-18T12:05:44.473Z,33.53
2018-07-18T12:06:45.045Z,34.10
2018-07-18T12:07:45.622Z,34.28
2018-07-18T12:08:46.196Z,34.56
2018-07-18T12:09:46.760Z,34.74
2018-07-18T12:10:47.332Z,35.23
2018-07-18T12:11:47.907Z,35.42
2018-07-18T12:12:48.479Z,34.67
2018-07-18T12:13:49.054Z,34.22
2018-07-18T12:14:49.631Z,34.23
2018-07-18T12:15:50.204Z,33.94
2018-07-18T12:16:50.787Z,33.44
2018-07-18T12:17:51.358Z,33.72
2018-07-18T12:18:51.946Z,34.03
2018-07-18T12:19:52.536Z,33.84
2018-07-18T12:20:53.104Z,33.86
2018-07-18T12:21:53.674Z,33.87
2018-07-18T12:22:54.247Z,33.28
2018-07-18T12:23:54.824Z,33.67
2018-07-18T12:24:55.401Z,32.79
2018-07-18T12:25:55.983Z,33.00
2018-07-18T12:26:56.554Z,32.70
2018-07-18T12:27:57.132Z,33.10
2018-07-18T12:28:57.720Z,33.61
2018-07-18T12:29:58.283Z,32.93
2018-07-18T12:30:58.869Z,32.31
2018-07-18T12:31:59.455Z,32.86
2018-07-18T12:33:00.041Z,33.36
2018-07-18T12:34:00.618Z,33.67
2018-07-18T12:35:01.199Z,32.90
2018-07-18T12:36:01.764Z,32.79
2018-07-18T12:37:02.340Z,33.29
2018-07-18T12:38:02.909Z,32.90
2018-07-18T12:39:03.483Z,32.98
2018-07-18T12:40:04.053Z,33.72
2018-07-18T12:41:04.621Z,34.47
2018-07-18T12:42:05.196Z,34.64
2018-07-18T12:43:05.771Z,35.41
2018-07-18T12:44:06.344Z,35.58
2018-07-18T12:45:06.912Z,36.08
2018-07-18T12:46:07.482Z,36.45
2018-07-18T12:47:08.055Z,36.43
2018-07-18T12:48:08.631Z,36.72
2018-07-18T12:49:09.253Z,37.81
2018-07-18T12:50:09.810Z,36.96
2018-07-18T12:51:10.406Z,36.40
2018-07-18T12:52:11.019Z,35.91
2018-07-18T12:53:11.585Z,35.72
2018-07-18T12:54:12.157Z,35.88
2018-07-18T12:55:12.750Z,36.45
2018-07-18T12:56:13.300Z,36.25
2018-07-18T12:57:13.912Z,36.55
2018-07-18T12:58:14.441Z,36.84
2018-07-18T12:59:15.012Z,37.02
2018-07-18T13:00:15.581Z,37.02